sensor_id;sensor_type;location;lat;lon;timestamp;P1;durP1;ratioP1;P2;durP2;ratioP2
77870;SDS011;67067;46.850;7.578;2023-08-12T00:00:46;8.40;;;4.07;;
77870;SDS011;67067;46.850;7.578;2023-08-12T00:01:48;4.35;;;3.75;;
77870;SDS011;67067;46.850;7.578;2023-08-12T00:02:50;3.65;;;3.30;;
77870;SDS011;67067;46.850;7.578;2023-08-12T00:03:52;4.00;;;3.47;;
77870;SDS011;67067;46.850;7.578;2023-08-12T00:04:58;4.15;;;3.60;;
77870;SDS011;67067;46.850;7.578;2023-08-12T00:05:59;3.60;;;3.30;;
77870;SDS011;67067;46.850;7.578;2023-08-12T00:07:03;4.10;;;3.53;;
77870;SDS011;67067;46.850;7.578;2023-08-12T00:08:07;5.00;;;3.47;;
77870;SDS011;67067;46.850;7.578;2023-08-12T00:10:15;4.35;;;3.72;;
77870;SDS011;67067;46.850;7.578;2023-08-12T00:11:19;6.65;;;3.63;;
77870;SDS011;67067;46.850;7.578;2023-08-12T00:13:23;5.03;;;3.38;;
77870;SDS011;67067;46.850;7.578;2023-08-12T00:14:25;3.60;;;3.30;;
77870;SDS011;67067;46.850;7.578;2023-08-12T00:15:26;5.30;;;3.88;;
77870;SDS011;67067;46.850;7.578;2023-08-12T00:16:28;3.97;;;3.40;;
77870;SDS011;67067;46.850;7.578;2023-08-12T00:18:32;5.40;;;3.90;;
77870;SDS011;67067;46.850;7.578;2023-08-12T00:19:38;3.85;;;3.55;;
77870;SDS011;67067;46.850;7.578;2023-08-12T00:21:43;4.75;;;3.40;;
77870;SDS011;67067;46.850;7.578;2023-08-12T00:22:45;5.22;;;3.38;;
77870;SDS011;67067;46.850;7.578;2023-08-12T00:23:49;6.57;;;3.58;;
77870;SDS011;67067;46.850;7.578;2023-08-12T00:24:53;5.65;;;3.75;;
77870;SDS011;67067;46.850;7.578;2023-08-12T00:25:57;7.22;;;3.40;;
77870;SDS011;67067;46.850;7.578;2023-08-12T00:27:00;4.97;;;3.35;;
77870;SDS011;67067;46.850;7.578;2023-08-12T00:30:06;6.63;;;3.40;;
77870;SDS011;67067;46.850;7.578;2023-08-12T00:31:10;4.05;;;3.60;;
77870;SDS011;67067;46.850;7.578;2023-08-12T00:32:12;3.75;;;3.30;;
77870;SDS011;67067;46.850;7.578;2023-08-12T00:33:16;4.63;;;3.25;;
77870;SDS011;67067;46.850;7.578;2023-08-12T00:34:22;5.45;;;3.47;;
77870;SDS011;67067;46.850;7.578;2023-08-12T00:35:24;4.03;;;3.63;;
77870;SDS011;67067;46.850;7.578;2023-08-12T00:37:32;5.72;;;3.38;;
77870;SDS011;67067;46.850;7.578;2023-08-12T00:39:36;3.40;;;3.10;;
77870;SDS011;67067;46.850;7.578;2023-08-12T00:40:37;6.55;;;3.20;;
77870;SDS011;67067;46.850;7.578;2023-08-12T00:41:39;5.82;;;3.33;;
77870;SDS011;67067;46.850;7.578;2023-08-12T00:43:42;7.05;;;3.50;;
77870;SDS011;67067;46.850;7.578;2023-08-12T00:44:44;6.28;;;3.38;;
77870;SDS011;67067;46.850;7.578;2023-08-12T00:47:51;5.68;;;3.67;;
77870;SDS011;67067;46.850;7.578;2023-08-12T00:48:53;7.07;;;3.55;;
77870;SDS011;67067;46.850;7.578;2023-08-12T00:50:58;4.82;;;3.70;;
77870;SDS011;67067;46.850;7.578;2023-08-12T00:52:01;3.92;;;3.50;;
77870;SDS011;67067;46.850;7.578;2023-08-12T00:54:08;3.97;;;3.33;;
77870;SDS011;67067;46.850;7.578;2023-08-12T00:55:15;4.82;;;3.38;;
77870;SDS011;67067;46.850;7.578;2023-08-12T00:56:21;4.05;;;3.05;;
77870;SDS011;67067;46.850;7.578;2023-08-12T00:57:26;6.13;;;3.40;;
77870;SDS011;67067;46.850;7.578;2023-08-12T00:58:28;3.95;;;3.42;;
77870;SDS011;67067;46.850;7.578;2023-08-12T00:59:36;5.25;;;3.67;;
77870;SDS011;67067;46.850;7.578;2023-08-12T01:00:39;12.63;;;5.13;;
77870;SDS011;67067;46.850;7.578;2023-08-12T01:01:44;7.90;;;4.47;;
77870;SDS011;67067;46.850;7.578;2023-08-12T01:02:49;5.78;;;3.70;;
77870;SDS011;67067;46.850;7.578;2023-08-12T01:03:53;4.97;;;4.20;;
77870;SDS011;67067;46.850;7.578;2023-08-12T01:04:56;6.10;;;3.80;;
77870;SDS011;67067;46.850;7.578;2023-08-12T01:06:59;5.05;;;3.40;;
77870;SDS011;67067;46.850;7.578;2023-08-12T01:08:02;8.20;;;3.72;;
77870;SDS011;67067;46.850;7.578;2023-08-12T01:09:06;4.25;;;3.80;;
77870;SDS011;67067;46.850;7.578;2023-08-12T01:10:08;4.63;;;3.67;;
77870;SDS011;67067;46.850;7.578;2023-08-12T01:13:30;7.65;;;3.50;;
77870;SDS011;67067;46.850;7.578;2023-08-12T01:14:45;6.80;;;3.97;;
77870;SDS011;67067;46.850;7.578;2023-08-12T01:15:48;3.97;;;3.28;;
77870;SDS011;67067;46.850;7.578;2023-08-12T01:16:58;6.95;;;3.72;;
77870;SDS011;67067;46.850;7.578;2023-08-12T01:18:06;5.20;;;3.60;;
77870;SDS011;67067;46.850;7.578;2023-08-12T01:19:11;6.30;;;3.83;;
77870;SDS011;67067;46.850;7.578;2023-08-12T01:20:28;6.70;;;3.65;;
77870;SDS011;67067;46.850;7.578;2023-08-12T01:21:32;7.55;;;3.60;;
77870;SDS011;67067;46.850;7.578;2023-08-12T01:22:37;4.60;;;3.78;;
77870;SDS011;67067;46.850;7.578;2023-08-12T01:23:42;4.65;;;3.60;;
77870;SDS011;67067;46.850;7.578;2023-08-12T01:24:47;4.20;;;3.70;;
77870;SDS011;67067;46.850;7.578;2023-08-12T01:26:50;4.50;;;3.38;;
77870;SDS011;67067;46.850;7.578;2023-08-12T01:28:54;4.55;;;3.70;;
77870;SDS011;67067;46.850;7.578;2023-08-12T01:29:59;5.80;;;3.40;;
77870;SDS011;67067;46.850;7.578;2023-08-12T01:31:23;3.72;;;3.30;;
77870;SDS011;67067;46.850;7.578;2023-08-12T01:34:20;4.28;;;3.55;;
77870;SDS011;67067;46.850;7.578;2023-08-12T01:35:30;6.63;;;3.30;;
77870;SDS011;67067;46.850;7.578;2023-08-12T01:36:39;8.00;;;3.55;;
77870;SDS011;67067;46.850;7.578;2023-08-12T01:37:48;3.78;;;3.20;;
77870;SDS011;67067;46.850;7.578;2023-08-12T01:38:51;6.45;;;3.47;;
77870;SDS011;67067;46.850;7.578;2023-08-12T01:39:58;5.30;;;3.10;;
77870;SDS011;67067;46.850;7.578;2023-08-12T01:41:04;3.45;;;3.15;;
77870;SDS011;67067;46.850;7.578;2023-08-12T01:42:08;3.55;;;2.75;;
77870;SDS011;67067;46.850;7.578;2023-08-12T01:43:15;3.38;;;3.10;;
77870;SDS011;67067;46.850;7.578;2023-08-12T01:44:17;7.53;;;3.28;;
77870;SDS011;67067;46.850;7.578;2023-08-12T01:45:19;5.38;;;3.35;;
77870;SDS011;67067;46.850;7.578;2023-08-12T01:46:22;3.97;;;3.55;;
77870;SDS011;67067;46.850;7.578;2023-08-12T01:47:24;3.47;;;3.17;;
77870;SDS011;67067;46.850;7.578;2023-08-12T01:48:27;3.80;;;3.00;;
77870;SDS011;67067;46.850;7.578;2023-08-12T01:50:33;5.75;;;3.50;;
77870;SDS011;67067;46.850;7.578;2023-08-12T01:51:37;3.40;;;3.10;;
77870;SDS011;67067;46.850;7.578;2023-08-12T01:52:39;5.68;;;3.42;;
77870;SDS011;67067;46.850;7.578;2023-08-12T01:53:44;4.32;;;3.28;;
77870;SDS011;67067;46.850;7.578;2023-08-12T01:54:46;4.88;;;3.28;;
77870;SDS011;67067;46.850;7.578;2023-08-12T01:56:51;3.80;;;3.38;;
77870;SDS011;67067;46.850;7.578;2023-08-12T01:57:53;3.45;;;3.15;;
77870;SDS011;67067;46.850;7.578;2023-08-12T01:59:56;3.33;;;3.03;;
77870;SDS011;67067;46.850;7.578;2023-08-12T02:00:58;4.97;;;3.20;;
77870;SDS011;67067;46.850;7.578;2023-08-12T02:03:03;5.70;;;3.50;;
77870;SDS011;67067;46.850;7.578;2023-08-12T02:04:06;3.95;;;3.53;;
77870;SDS011;67067;46.850;7.578;2023-08-12T02:06:09;5.38;;;3.40;;
77870;SDS011;67067;46.850;7.578;2023-08-12T02:07:11;5.03;;;3.60;;
77870;SDS011;67067;46.850;7.578;2023-08-12T02:08:13;4.53;;;3.50;;
77870;SDS011;67067;46.850;7.578;2023-08-12T02:10:17;4.07;;;3.53;;
77870;SDS011;67067;46.850;7.578;2023-08-12T02:11:23;8.43;;;3.83;;
77870;SDS011;67067;46.850;7.578;2023-08-12T02:12:26;6.43;;;3.55;;
77870;SDS011;67067;46.850;7.578;2023-08-12T02:13:31;4.68;;;3.60;;
77870;SDS011;67067;46.850;7.578;2023-08-12T02:14:33;6.05;;;3.65;;
77870;SDS011;67067;46.850;7.578;2023-08-12T02:15:35;3.92;;;3.60;;
77870;SDS011;67067;46.850;7.578;2023-08-12T02:16:38;6.57;;;3.33;;
77870;SDS011;67067;46.850;7.578;2023-08-12T02:18:42;7.13;;;3.47;;
77870;SDS011;67067;46.850;7.578;2023-08-12T02:19:44;4.75;;;3.60;;
77870;SDS011;67067;46.850;7.578;2023-08-12T02:21:51;4.43;;;3.30;;
77870;SDS011;67067;46.850;7.578;2023-08-12T02:22:53;7.43;;;3.60;;
77870;SDS011;67067;46.850;7.578;2023-08-12T02:23:54;6.72;;;3.17;;
77870;SDS011;67067;46.850;7.578;2023-08-12T02:24:56;6.35;;;3.33;;
77870;SDS011;67067;46.850;7.578;2023-08-12T02:25:58;6.80;;;3.40;;
77870;SDS011;67067;46.850;7.578;2023-08-12T02:27:04;3.80;;;3.40;;
77870;SDS011;67067;46.850;7.578;2023-08-12T02:28:05;3.40;;;3.10;;
77870;SDS011;67067;46.850;7.578;2023-08-12T02:29:09;3.30;;;3.10;;
77870;SDS011;67067;46.850;7.578;2023-08-12T02:30:13;3.35;;;3.05;;
77870;SDS011;67067;46.850;7.578;2023-08-12T02:31:17;4.20;;;3.17;;
77870;SDS011;67067;46.850;7.578;2023-08-12T02:32:19;4.45;;;3.35;;
77870;SDS011;67067;46.850;7.578;2023-08-12T02:33:24;3.58;;;3.20;;
77870;SDS011;67067;46.850;7.578;2023-08-12T02:34:26;4.57;;;3.30;;
77870;SDS011;67067;46.850;7.578;2023-08-12T02:35:27;5.75;;;3.42;;
77870;SDS011;67067;46.850;7.578;2023-08-12T02:37:31;3.70;;;3.40;;
77870;SDS011;67067;46.850;7.578;2023-08-12T02:38:33;6.75;;;3.45;;
77870;SDS011;67067;46.850;7.578;2023-08-12T02:39:35;3.90;;;3.50;;
77870;SDS011;67067;46.850;7.578;2023-08-12T02:40:39;4.07;;;3.50;;
77870;SDS011;67067;46.850;7.578;2023-08-12T02:41:44;6.22;;;3.53;;
77870;SDS011;67067;46.850;7.578;2023-08-12T02:42:46;4.28;;;3.08;;
77870;SDS011;67067;46.850;7.578;2023-08-12T02:43:52;3.53;;;3.03;;
77870;SDS011;67067;46.850;7.578;2023-08-12T02:45:58;3.08;;;2.88;;
77870;SDS011;67067;46.850;7.578;2023-08-12T02:47:00;3.38;;;3.08;;
77870;SDS011;67067;46.850;7.578;2023-08-12T02:48:02;4.05;;;3.65;;
77870;SDS011;67067;46.850;7.578;2023-08-12T02:49:04;3.75;;;3.45;;
77870;SDS011;67067;46.850;7.578;2023-08-12T02:51:09;4.05;;;3.50;;
77870;SDS011;67067;46.850;7.578;2023-08-12T02:52:11;3.00;;;2.80;;
77870;SDS011;67067;46.850;7.578;2023-08-12T02:53:14;5.10;;;3.20;;
77870;SDS011;67067;46.850;7.578;2023-08-12T02:54:17;3.95;;;3.50;;
77870;SDS011;67067;46.850;7.578;2023-08-12T02:55:21;6.07;;;3.30;;
77870;SDS011;67067;46.850;7.578;2023-08-12T02:57:26;4.57;;;3.30;;
77870;SDS011;67067;46.850;7.578;2023-08-12T02:59:30;4.32;;;3.30;;
77870;SDS011;67067;46.850;7.578;2023-08-12T03:00:34;3.97;;;3.40;;
77870;SDS011;67067;46.850;7.578;2023-08-12T03:01:35;3.60;;;3.30;;
77870;SDS011;67067;46.850;7.578;2023-08-12T03:02:37;6.50;;;3.22;;
77870;SDS011;67067;46.850;7.578;2023-08-12T03:03:39;3.70;;;3.40;;
77870;SDS011;67067;46.850;7.578;2023-08-12T03:04:42;3.67;;;3.30;;
77870;SDS011;67067;46.850;7.578;2023-08-12T03:05:46;6.07;;;3.30;;
77870;SDS011;67067;46.850;7.578;2023-08-12T03:06:49;5.93;;;3.60;;
77870;SDS011;67067;46.850;7.578;2023-08-12T03:08:55;6.88;;;5.13;;
77870;SDS011;67067;46.850;7.578;2023-08-12T03:09:57;7.38;;;4.40;;
77870;SDS011;67067;46.850;7.578;2023-08-12T03:11:00;7.45;;;4.10;;
77870;SDS011;67067;46.850;7.578;2023-08-12T03:12:03;4.00;;;3.60;;
77870;SDS011;67067;46.850;7.578;2023-08-12T03:13:06;4.57;;;3.30;;
77870;SDS011;67067;46.850;7.578;2023-08-12T03:14:07;3.42;;;3.00;;
77870;SDS011;67067;46.850;7.578;2023-08-12T03:15:10;4.00;;;3.60;;
77870;SDS011;67067;46.850;7.578;2023-08-12T03:16:15;3.53;;;3.22;;
77870;SDS011;67067;46.850;7.578;2023-08-12T03:17:20;3.22;;;2.92;;
77870;SDS011;67067;46.850;7.578;2023-08-12T03:18:25;4.32;;;3.25;;
77870;SDS011;67067;46.850;7.578;2023-08-12T03:19:27;4.20;;;2.95;;
77870;SDS011;67067;46.850;7.578;2023-08-12T03:21:33;3.85;;;3.40;;
77870;SDS011;67067;46.850;7.578;2023-08-12T03:22:38;3.70;;;3.05;;
77870;SDS011;67067;46.850;7.578;2023-08-12T03:23:43;4.70;;;3.30;;
77870;SDS011;67067;46.850;7.578;2023-08-12T03:24:47;4.35;;;3.35;;
77870;SDS011;67067;46.850;7.578;2023-08-12T03:25:51;4.30;;;3.20;;
77870;SDS011;67067;46.850;7.578;2023-08-12T03:26:54;4.60;;;3.13;;
77870;SDS011;67067;46.850;7.578;2023-08-12T03:27:55;6.13;;;3.58;;
77870;SDS011;67067;46.850;7.578;2023-08-12T03:28:59;3.70;;;3.10;;
77870;SDS011;67067;46.850;7.578;2023-08-12T03:30:01;3.33;;;3.13;;
77870;SDS011;67067;46.850;7.578;2023-08-12T03:31:06;5.82;;;3.42;;
77870;SDS011;67067;46.850;7.578;2023-08-12T03:32:09;4.55;;;3.00;;
77870;SDS011;67067;46.850;7.578;2023-08-12T03:33:11;4.45;;;3.10;;
77870;SDS011;67067;46.850;7.578;2023-08-12T03:34:15;4.25;;;3.30;;
77870;SDS011;67067;46.850;7.578;2023-08-12T03:35:17;5.22;;;3.30;;
77870;SDS011;67067;46.850;7.578;2023-08-12T03:36:20;5.38;;;3.70;;
77870;SDS011;67067;46.850;7.578;2023-08-12T03:37:23;4.97;;;3.35;;
77870;SDS011;67067;46.850;7.578;2023-08-12T03:38:27;4.53;;;3.63;;
77870;SDS011;67067;46.850;7.578;2023-08-12T03:39:28;4.63;;;3.22;;
77870;SDS011;67067;46.850;7.578;2023-08-12T03:40:31;3.72;;;3.40;;
77870;SDS011;67067;46.850;7.578;2023-08-12T03:41:35;5.90;;;3.42;;
77870;SDS011;67067;46.850;7.578;2023-08-12T03:42:39;5.40;;;3.40;;
77870;SDS011;67067;46.850;7.578;2023-08-12T03:44:43;5.13;;;3.55;;
77870;SDS011;67067;46.850;7.578;2023-08-12T03:45:45;3.92;;;3.15;;
77870;SDS011;67067;46.850;7.578;2023-08-12T03:46:52;3.55;;;3.25;;
77870;SDS011;67067;46.850;7.578;2023-08-12T03:47:54;4.63;;;3.20;;
77870;SDS011;67067;46.850;7.578;2023-08-12T03:48:56;3.30;;;3.05;;
77870;SDS011;67067;46.850;7.578;2023-08-12T03:50:00;3.88;;;3.28;;
77870;SDS011;67067;46.850;7.578;2023-08-12T03:51:04;3.65;;;3.35;;
77870;SDS011;67067;46.850;7.578;2023-08-12T03:53:08;3.75;;;3.28;;
77870;SDS011;67067;46.850;7.578;2023-08-12T03:54:12;4.90;;;3.28;;
77870;SDS011;67067;46.850;7.578;2023-08-12T03:55:14;3.50;;;3.20;;
77870;SDS011;67067;46.850;7.578;2023-08-12T03:56:16;3.83;;;3.40;;
77870;SDS011;67067;46.850;7.578;2023-08-12T03:57:20;3.83;;;3.40;;
77870;SDS011;67067;46.850;7.578;2023-08-12T03:58:24;4.00;;;3.38;;
77870;SDS011;67067;46.850;7.578;2023-08-12T03:59:28;7.70;;;3.50;;
77870;SDS011;67067;46.850;7.578;2023-08-12T04:00:32;3.85;;;3.47;;
77870;SDS011;67067;46.850;7.578;2023-08-12T04:01:36;4.93;;;3.72;;
77870;SDS011;67067;46.850;7.578;2023-08-12T04:02:39;4.47;;;3.42;;
77870;SDS011;67067;46.850;7.578;2023-08-12T04:03:43;3.55;;;3.22;;
77870;SDS011;67067;46.850;7.578;2023-08-12T04:04:45;3.63;;;3.30;;
77870;SDS011;67067;46.850;7.578;2023-08-12T04:06:50;3.53;;;3.05;;
77870;SDS011;67067;46.850;7.578;2023-08-12T04:07:55;3.80;;;3.40;;
77870;SDS011;67067;46.850;7.578;2023-08-12T04:08:59;4.25;;;3.50;;
77870;SDS011;67067;46.850;7.578;2023-08-12T04:10:03;5.78;;;3.63;;
77870;SDS011;67067;46.850;7.578;2023-08-12T04:11:06;8.13;;;3.33;;
77870;SDS011;67067;46.850;7.578;2023-08-12T04:12:07;4.82;;;3.30;;
77870;SDS011;67067;46.850;7.578;2023-08-12T04:13:12;4.28;;;3.00;;
77870;SDS011;67067;46.850;7.578;2023-08-12T04:15:17;3.40;;;3.10;;
77870;SDS011;67067;46.850;7.578;2023-08-12T04:16:18;4.85;;;3.35;;
77870;SDS011;67067;46.850;7.578;2023-08-12T04:17:21;4.82;;;3.35;;
77870;SDS011;67067;46.850;7.578;2023-08-12T04:19:28;3.55;;;3.25;;
77870;SDS011;67067;46.850;7.578;2023-08-12T04:20:34;6.07;;;3.58;;
77870;SDS011;67067;46.850;7.578;2023-08-12T04:21:38;5.05;;;3.30;;
77870;SDS011;67067;46.850;7.578;2023-08-12T04:22:42;4.88;;;3.00;;
77870;SDS011;67067;46.850;7.578;2023-08-12T04:24:46;3.40;;;3.08;;
77870;SDS011;67067;46.850;7.578;2023-08-12T04:25:48;3.83;;;3.40;;
77870;SDS011;67067;46.850;7.578;2023-08-12T04:26:52;5.15;;;3.28;;
77870;SDS011;67067;46.850;7.578;2023-08-12T04:28:58;4.03;;;3.35;;
77870;SDS011;67067;46.850;7.578;2023-08-12T04:30:02;5.43;;;3.55;;
77870;SDS011;67067;46.850;7.578;2023-08-12T04:31:06;5.43;;;3.72;;
77870;SDS011;67067;46.850;7.578;2023-08-12T04:32:13;5.57;;;3.58;;
77870;SDS011;67067;46.850;7.578;2023-08-12T04:33:18;4.22;;;3.30;;
77870;SDS011;67067;46.850;7.578;2023-08-12T04:34:22;3.45;;;3.08;;
77870;SDS011;67067;46.850;7.578;2023-08-12T04:35:26;5.70;;;3.60;;
77870;SDS011;67067;46.850;7.578;2023-08-12T04:36:28;3.53;;;3.22;;
77870;SDS011;67067;46.850;7.578;2023-08-12T04:37:32;5.25;;;3.10;;
77870;SDS011;67067;46.850;7.578;2023-08-12T04:38:34;3.80;;;3.40;;
77870;SDS011;67067;46.850;7.578;2023-08-12T04:39:40;6.35;;;3.50;;
77870;SDS011;67067;46.850;7.578;2023-08-12T04:40:42;4.05;;;3.47;;
77870;SDS011;67067;46.850;7.578;2023-08-12T04:41:46;4.28;;;3.53;;
77870;SDS011;67067;46.850;7.578;2023-08-12T04:42:50;5.72;;;3.35;;
77870;SDS011;67067;46.850;7.578;2023-08-12T04:43:52;4.63;;;3.50;;
77870;SDS011;67067;46.850;7.578;2023-08-12T04:44:57;3.75;;;3.22;;
77870;SDS011;67067;46.850;7.578;2023-08-12T04:45:59;4.45;;;3.20;;
77870;SDS011;67067;46.850;7.578;2023-08-12T04:47:01;4.53;;;3.38;;
77870;SDS011;67067;46.850;7.578;2023-08-12T04:48:04;4.45;;;3.30;;
77870;SDS011;67067;46.850;7.578;2023-08-12T04:49:10;4.15;;;3.40;;
77870;SDS011;67067;46.850;7.578;2023-08-12T04:50:15;5.03;;;3.42;;
77870;SDS011;67067;46.850;7.578;2023-08-12T04:51:17;3.78;;;3.33;;
77870;SDS011;67067;46.850;7.578;2023-08-12T04:52:19;4.35;;;3.20;;
77870;SDS011;67067;46.850;7.578;2023-08-12T04:53:23;4.90;;;3.33;;
77870;SDS011;67067;46.850;7.578;2023-08-12T04:54:26;3.63;;;3.33;;
77870;SDS011;67067;46.850;7.578;2023-08-12T04:55:30;4.35;;;3.25;;
77870;SDS011;67067;46.850;7.578;2023-08-12T04:56:36;5.07;;;3.47;;
77870;SDS011;67067;46.850;7.578;2023-08-12T04:57:38;5.45;;;3.63;;
77870;SDS011;67067;46.850;7.578;2023-08-12T04:58:40;5.53;;;3.70;;
77870;SDS011;67067;46.850;7.578;2023-08-12T04:59:44;5.53;;;3.47;;
77870;SDS011;67067;46.850;7.578;2023-08-12T05:00:46;4.00;;;3.63;;
77870;SDS011;67067;46.850;7.578;2023-08-12T05:01:48;3.58;;;3.28;;
77870;SDS011;67067;46.850;7.578;2023-08-12T05:03:10;6.53;;;3.75;;
77870;SDS011;67067;46.850;7.578;2023-08-12T05:04:13;4.97;;;3.58;;
77870;SDS011;67067;46.850;7.578;2023-08-12T05:05:14;5.40;;;3.75;;
77870;SDS011;67067;46.850;7.578;2023-08-12T05:06:19;3.97;;;3.53;;
77870;SDS011;67067;46.850;7.578;2023-08-12T05:07:21;3.88;;;3.47;;
77870;SDS011;67067;46.850;7.578;2023-08-12T05:08:23;5.15;;;3.25;;
77870;SDS011;67067;46.850;7.578;2023-08-12T05:09:27;5.55;;;3.67;;
77870;SDS011;67067;46.850;7.578;2023-08-12T05:11:35;5.13;;;3.33;;
77870;SDS011;67067;46.850;7.578;2023-08-12T05:12:37;3.90;;;3.50;;
77870;SDS011;67067;46.850;7.578;2023-08-12T05:13:39;5.20;;;3.60;;
77870;SDS011;67067;46.850;7.578;2023-08-12T05:14:46;6.07;;;3.60;;
77870;SDS011;67067;46.850;7.578;2023-08-12T05:15:50;6.18;;;3.10;;
77870;SDS011;67067;46.850;7.578;2023-08-12T05:16:52;4.22;;;3.40;;
77870;SDS011;67067;46.850;7.578;2023-08-12T05:17:54;5.43;;;3.40;;
77870;SDS011;67067;46.850;7.578;2023-08-12T05:18:57;4.63;;;3.58;;
77870;SDS011;67067;46.850;7.578;2023-08-12T05:20:04;3.40;;;3.10;;
77870;SDS011;67067;46.850;7.578;2023-08-12T05:21:07;5.38;;;3.22;;
77870;SDS011;67067;46.850;7.578;2023-08-12T05:23:11;3.95;;;3.63;;
77870;SDS011;67067;46.850;7.578;2023-08-12T05:24:13;4.03;;;3.38;;
77870;SDS011;67067;46.850;7.578;2023-08-12T05:25:16;9.00;;;4.47;;
77870;SDS011;67067;46.850;7.578;2023-08-12T05:26:20;5.28;;;3.85;;
77870;SDS011;67067;46.850;7.578;2023-08-12T05:27:24;4.30;;;3.25;;
77870;SDS011;67067;46.850;7.578;2023-08-12T05:28:26;3.53;;;3.22;;
77870;SDS011;67067;46.850;7.578;2023-08-12T05:29:31;6.13;;;3.50;;
77870;SDS011;67067;46.850;7.578;2023-08-12T05:31:35;3.67;;;3.38;;
77870;SDS011;67067;46.850;7.578;2023-08-12T05:32:38;3.53;;;3.22;;
77870;SDS011;67067;46.850;7.578;2023-08-12T05:34:44;3.65;;;3.35;;
77870;SDS011;67067;46.850;7.578;2023-08-12T05:36:53;5.30;;;3.50;;
77870;SDS011;67067;46.850;7.578;2023-08-12T05:38:56;4.28;;;3.63;;
77870;SDS011;67067;46.850;7.578;2023-08-12T05:41:00;6.47;;;4.00;;
77870;SDS011;67067;46.850;7.578;2023-08-12T05:42:02;3.60;;;3.30;;
77870;SDS011;67067;46.850;7.578;2023-08-12T05:43:04;6.30;;;3.40;;
77870;SDS011;67067;46.850;7.578;2023-08-12T05:44:05;4.57;;;3.40;;
77870;SDS011;67067;46.850;7.578;2023-08-12T05:45:09;4.95;;;3.45;;
77870;SDS011;67067;46.850;7.578;2023-08-12T05:46:14;3.55;;;3.25;;
77870;SDS011;67067;46.850;7.578;2023-08-12T05:47:19;8.93;;;3.60;;
77870;SDS011;67067;46.850;7.578;2023-08-12T05:48:25;4.40;;;3.42;;
77870;SDS011;67067;46.850;7.578;2023-08-12T05:49:29;3.78;;;3.22;;
77870;SDS011;67067;46.850;7.578;2023-08-12T05:51:35;3.58;;;3.22;;
77870;SDS011;67067;46.850;7.578;2023-08-12T05:53:38;4.65;;;3.50;;
77870;SDS011;67067;46.850;7.578;2023-08-12T05:54:40;6.30;;;3.58;;
77870;SDS011;67067;46.850;7.578;2023-08-12T05:55:44;3.47;;;3.17;;
77870;SDS011;67067;46.850;7.578;2023-08-12T05:57:47;3.92;;;3.10;;
77870;SDS011;67067;46.850;7.578;2023-08-12T05:58:49;5.55;;;3.30;;
77870;SDS011;67067;46.850;7.578;2023-08-12T06:00:52;5.22;;;3.45;;
77870;SDS011;67067;46.850;7.578;2023-08-12T06:02:56;4.47;;;3.33;;
77870;SDS011;67067;46.850;7.578;2023-08-12T06:03:58;3.85;;;3.30;;
77870;SDS011;67067;46.850;7.578;2023-08-12T06:05:00;5.45;;;3.30;;
77870;SDS011;67067;46.850;7.578;2023-08-12T06:06:04;5.97;;;3.22;;
77870;SDS011;67067;46.850;7.578;2023-08-12T06:07:06;4.05;;;3.45;;
77870;SDS011;67067;46.850;7.578;2023-08-12T06:08:09;5.47;;;3.33;;
77870;SDS011;67067;46.850;7.578;2023-08-12T06:09:13;3.97;;;3.47;;
77870;SDS011;67067;46.850;7.578;2023-08-12T06:11:17;6.03;;;3.47;;
77870;SDS011;67067;46.850;7.578;2023-08-12T06:12:19;5.15;;;3.30;;
77870;SDS011;67067;46.850;7.578;2023-08-12T06:13:23;4.50;;;3.30;;
77870;SDS011;67067;46.850;7.578;2023-08-12T06:14:27;6.57;;;3.55;;
77870;SDS011;67067;46.850;7.578;2023-08-12T06:15:29;6.03;;;3.42;;
77870;SDS011;67067;46.850;7.578;2023-08-12T06:16:32;5.68;;;3.60;;
77870;SDS011;67067;46.850;7.578;2023-08-12T06:17:33;4.03;;;3.50;;
77870;SDS011;67067;46.850;7.578;2023-08-12T06:19:37;5.85;;;3.63;;
77870;SDS011;67067;46.850;7.578;2023-08-12T06:20:41;3.78;;;3.35;;
77870;SDS011;67067;46.850;7.578;2023-08-12T06:21:45;3.42;;;3.13;;
77870;SDS011;67067;46.850;7.578;2023-08-12T06:22:46;6.50;;;3.42;;
77870;SDS011;67067;46.850;7.578;2023-08-12T06:24:52;6.15;;;3.45;;
77870;SDS011;67067;46.850;7.578;2023-08-12T06:25:54;3.60;;;3.30;;
77870;SDS011;67067;46.850;7.578;2023-08-12T06:27:59;5.28;;;3.58;;
77870;SDS011;67067;46.850;7.578;2023-08-12T06:29:03;3.70;;;3.40;;
77870;SDS011;67067;46.850;7.578;2023-08-12T06:30:12;7.32;;;3.72;;
77870;SDS011;67067;46.850;7.578;2023-08-12T06:31:15;10.57;;;3.90;;
77870;SDS011;67067;46.850;7.578;2023-08-12T06:32:16;5.75;;;3.38;;
77870;SDS011;67067;46.850;7.578;2023-08-12T06:33:18;8.05;;;4.20;;
77870;SDS011;67067;46.850;7.578;2023-08-12T06:35:22;4.30;;;3.90;;
77870;SDS011;67067;46.850;7.578;2023-08-12T06:36:23;6.75;;;3.95;;
77870;SDS011;67067;46.850;7.578;2023-08-12T06:38:29;6.20;;;3.75;;
77870;SDS011;67067;46.850;7.578;2023-08-12T06:40:33;6.05;;;3.58;;
77870;SDS011;67067;46.850;7.578;2023-08-12T06:41:34;6.93;;;4.00;;
77870;SDS011;67067;46.850;7.578;2023-08-12T06:42:36;7.45;;;5.78;;
77870;SDS011;67067;46.850;7.578;2023-08-12T06:43:38;8.50;;;5.63;;
77870;SDS011;67067;46.850;7.578;2023-08-12T06:45:44;9.75;;;5.95;;
77870;SDS011;67067;46.850;7.578;2023-08-12T06:46:46;7.53;;;4.97;;
77870;SDS011;67067;46.850;7.578;2023-08-12T06:47:48;8.25;;;4.95;;
77870;SDS011;67067;46.850;7.578;2023-08-12T06:48:51;9.60;;;4.60;;
77870;SDS011;67067;46.850;7.578;2023-08-12T06:50:58;4.80;;;4.25;;
77870;SDS011;67067;46.850;7.578;2023-08-12T06:53:01;4.70;;;3.92;;
77870;SDS011;67067;46.850;7.578;2023-08-12T06:54:03;5.68;;;4.50;;
77870;SDS011;67067;46.850;7.578;2023-08-12T06:55:06;4.65;;;3.92;;
77870;SDS011;67067;46.850;7.578;2023-08-12T06:56:10;5.53;;;3.85;;
77870;SDS011;67067;46.850;7.578;2023-08-12T06:57:12;7.53;;;4.43;;
77870;SDS011;67067;46.850;7.578;2023-08-12T06:58:14;4.68;;;4.15;;
77870;SDS011;67067;46.850;7.578;2023-08-12T06:59:16;4.15;;;3.75;;
77870;SDS011;67067;46.850;7.578;2023-08-12T07:00:18;5.07;;;4.22;;
77870;SDS011;67067;46.850;7.578;2023-08-12T07:01:20;4.82;;;4.30;;
77870;SDS011;67067;46.850;7.578;2023-08-12T07:02:24;8.38;;;4.40;;
77870;SDS011;67067;46.850;7.578;2023-08-12T07:03:28;8.35;;;4.60;;
77870;SDS011;67067;46.850;7.578;2023-08-12T07:04:32;6.80;;;4.63;;
77870;SDS011;67067;46.850;7.578;2023-08-12T07:06:38;7.47;;;5.00;;
77870;SDS011;67067;46.850;7.578;2023-08-12T07:07:42;8.88;;;4.53;;
77870;SDS011;67067;46.850;7.578;2023-08-12T07:08:44;10.43;;;4.63;;
77870;SDS011;67067;46.850;7.578;2023-08-12T07:09:51;7.30;;;4.20;;
77870;SDS011;67067;46.850;7.578;2023-08-12T07:11:54;5.43;;;3.88;;
77870;SDS011;67067;46.850;7.578;2023-08-12T07:12:56;7.05;;;4.15;;
77870;SDS011;67067;46.850;7.578;2023-08-12T07:15:02;4.53;;;4.10;;
77870;SDS011;67067;46.850;7.578;2023-08-12T07:16:04;8.38;;;4.25;;
77870;SDS011;67067;46.850;7.578;2023-08-12T07:17:06;5.72;;;4.15;;
77870;SDS011;67067;46.850;7.578;2023-08-12T07:19:12;4.47;;;3.67;;
77870;SDS011;67067;46.850;7.578;2023-08-12T07:20:17;4.50;;;3.95;;
77870;SDS011;67067;46.850;7.578;2023-08-12T07:21:21;5.55;;;4.25;;
77870;SDS011;67067;46.850;7.578;2023-08-12T07:22:23;4.80;;;3.97;;
77870;SDS011;67067;46.850;7.578;2023-08-12T07:23:25;4.22;;;3.90;;
77870;SDS011;67067;46.850;7.578;2023-08-12T07:24:27;4.95;;;3.75;;
77870;SDS011;67067;46.850;7.578;2023-08-12T07:25:29;3.97;;;3.50;;
77870;SDS011;67067;46.850;7.578;2023-08-12T07:26:33;4.85;;;3.67;;
77870;SDS011;67067;46.850;7.578;2023-08-12T07:27:34;6.03;;;3.83;;
77870;SDS011;67067;46.850;7.578;2023-08-12T07:28:36;5.97;;;3.63;;
77870;SDS011;67067;46.850;7.578;2023-08-12T07:29:40;4.18;;;3.78;;
77870;SDS011;67067;46.850;7.578;2023-08-12T07:30:42;5.40;;;3.78;;
77870;SDS011;67067;46.850;7.578;2023-08-12T07:31:44;6.13;;;3.75;;
77870;SDS011;67067;46.850;7.578;2023-08-12T07:32:46;4.03;;;3.63;;